createdAt,value
2022-10-20T00:00:54.391Z,12.73
2022-10-20T00:03:22.101Z,11.30
2022-10-20T00:05:49.685Z,11.88
2022-10-20T00:08:17.259Z,9.98
2022-10-20T00:13:25.827Z,11.00
2022-10-20T00:15:53.841Z,11.77
2022-10-20T00:18:21.647Z,10.35
2022-10-20T00:20:49.273Z,12.60
2022-10-20T00:23:16.687Z,11.20
2022-10-20T00:25:44.187Z,11.75
2022-10-20T00:28:11.488Z,11.82
2022-10-20T00:30:38.773Z,13.38
2022-10-20T00:33:06.574Z,12.50
2022-10-20T00:35:34.207Z,12.85
2022-10-20T00:38:01.572Z,10.55
2022-10-20T00:40:29.080Z,12.52
2022-10-20T00:42:56.401Z,13.77
2022-10-20T00:45:23.624Z,13.10
2022-10-20T00:47:53.307Z,9.90
2022-10-20T00:50:31.213Z,13.32
2022-10-20T00:52:58.555Z,13.98
2022-10-20T00:55:30.216Z,11.88
2022-10-20T00:57:58.938Z,11.80
2022-10-20T01:00:26.530Z,12.95
2022-10-20T01:02:54.825Z,11.80
2022-10-20T01:05:22.342Z,13.82
2022-10-20T01:07:49.804Z,12.07
2022-10-20T01:10:17.856Z,13.45
2022-10-20T01:12:55.016Z,12.45
2022-10-20T01:15:22.279Z,14.65
2022-10-20T01:18:05.978Z,14.98
2022-10-20T01:20:52.230Z,14.02
2022-10-20T01:23:38.119Z,10.95
2022-10-20T01:26:23.931Z,13.98
2022-10-20T01:28:55.160Z,12.40
2022-10-20T01:31:41.055Z,12.25
2022-10-20T01:34:14.356Z,11.70
2022-10-20T01:36:45.855Z,10.18
2022-10-20T01:39:18.446Z,11.00
2022-10-20T01:41:57.144Z,15.27
2022-10-20T01:44:25.860Z,12.55
2022-10-20T01:46:53.685Z,12.13
2022-10-20T01:49:20.928Z,10.60
2022-10-20T01:51:48.183Z,15.45
2022-10-20T01:54:25.546Z,12.80
2022-10-20T01:57:11.393Z,11.82
2022-10-20T01:59:47.509Z,11.25
2022-10-20T02:02:17.756Z,16.58
2022-10-20T02:05:05.265Z,13.40
2022-10-20T02:07:33.698Z,13.07
2022-10-20T02:10:04.638Z,13.88
2022-10-20T02:12:35.486Z,12.70
2022-10-20T02:15:03.472Z,13.77
2022-10-20T02:17:30.808Z,13.23
2022-10-20T02:19:58.441Z,16.17
2022-10-20T02:22:26.191Z,13.40
2022-10-20T02:24:53.485Z,12.15
2022-10-20T02:27:28.080Z,12.70
2022-10-20T02:29:58.710Z,23.17
2022-10-20T02:32:26.220Z,14.60
2022-10-20T02:34:53.464Z,15.52
2022-10-20T02:37:20.724Z,16.83
2022-10-20T02:39:47.965Z,14.75
2022-10-20T02:42:17.440Z,14.60
2022-10-20T02:44:44.715Z,17.52
2022-10-20T02:47:11.994Z,17.10
2022-10-20T02:49:39.364Z,13.75
2022-10-20T02:52:06.688Z,15.18
2022-10-20T02:54:33.970Z,12.15
2022-10-20T02:57:01.333Z,15.95
2022-10-20T02:59:28.575Z,15.35
2022-10-20T03:01:56.106Z,16.60
2022-10-20T03:04:23.525Z,15.15
2022-10-20T03:06:50.796Z,15.05
2022-10-20T03:09:17.977Z,13.05
2022-10-20T03:11:45.360Z,13.63
2022-10-20T03:14:12.836Z,12.50
2022-10-20T03:16:40.121Z,17.45
2022-10-20T03:19:11.321Z,15.57
2022-10-20T03:21:39.223Z,13.55
2022-10-20T03:24:06.630Z,12.23
2022-10-20T03:26:33.991Z,14.80
2022-10-20T03:29:01.276Z,12.73
2022-10-20T03:31:28.590Z,17.23
2022-10-20T03:33:55.945Z,12.98
2022-10-20T03:36:23.454Z,14.18
2022-10-20T03:38:50.767Z,15.18
2022-10-20T03:41:18.146Z,15.07
2022-10-20T03:43:45.367Z,15.77
2022-10-20T03:46:12.824Z,16.30
2022-10-20T03:48:40.423Z,15.50
2022-10-20T03:51:09.214Z,14.52
2022-10-20T03:53:36.424Z,14.65
2022-10-20T03:56:07.772Z,12.93
2022-10-20T03:58:35.272Z,14.15
2022-10-20T04:01:02.897Z,13.90
2022-10-20T04:03:30.334Z,15.30
2022-10-20T04:05:57.603Z,13.93
2022-10-20T04:08:24.957Z,13.55
2022-10-20T04:10:52.529Z,15.27
2022-10-20T04:13:19.778Z,15.90
2022-10-20T04:15:46.954Z,16.50
2022-10-20T04:18:14.259Z,13.65
2022-10-20T04:20:44.341Z,16.35
2022-10-20T04:23:12.378Z,15.15
2022-10-20T04:25:41.037Z,15.27
2022-10-20T04:28:08.919Z,14.35
2022-10-20T04:30:36.255Z,15.60
2022-10-20T04:33:03.705Z,15.60
2022-10-20T04:35:30.870Z,16.13
2022-10-20T04:37:58.144Z,13.65
2022-10-20T04:40:25.485Z,15.63
2022-10-20T04:42:52.823Z,14.15
2022-10-20T04:45:20.034Z,16.10
2022-10-20T04:47:49.469Z,15.18
2022-10-20T04:50:16.711Z,15.88
2022-10-20T04:52:59.566Z,16.33
2022-10-20T04:55:26.989Z,14.18
2022-10-20T04:57:54.596Z,12.77
2022-10-20T05:00:21.959Z,15.68
2022-10-20T05:02:49.190Z,13.38
2022-10-20T05:05:16.527Z,15.07
2022-10-20T05:07:44.003Z,15.98
2022-10-20T05:10:11.286Z,15.68
2022-10-20T05:12:38.713Z,13.23
2022-10-20T05:15:06.392Z,16.60
2022-10-20T05:17:33.595Z,14.60
2022-10-20T05:20:00.971Z,12.93
2022-10-20T05:22:28.367Z,15.02
2022-10-20T05:24:58.431Z,14.68
2022-10-20T05:27:31.737Z,17.50
2022-10-20T05:29:58.947Z,14.65
2022-10-20T05:32:26.215Z,14.23
2022-10-20T05:34:53.731Z,15.65
2022-10-20T05:37:24.204Z,15.02
2022-10-20T05:39:52.702Z,16.75
2022-10-20T05:42:19.951Z,16.25
2022-10-20T05:44:47.286Z,14.80
2022-10-20T05:47:14.496Z,14.35
2022-10-20T05:49:41.847Z,15.05
2022-10-20T05:52:09.069Z,16.23
2022-10-20T05:54:36.296Z,16.08
2022-10-20T05:57:03.643Z,16.92
2022-10-20T05:59:32.458Z,15.93
2022-10-20T06:01:59.651Z,21.08
2022-10-20T06:04:28.259Z,17.30
2022-10-20T06:06:55.612Z,15.98
2022-10-20T06:09:24.392Z,15.57
2022-10-20T06:11:52.102Z,14.88
2022-10-20T06:14:22.322Z,16.55
2022-10-20T06:16:53.269Z,18.63
2022-10-20T06:19:20.949Z,20.27
2022-10-20T06:21:49.427Z,16.92
2022-10-20T06:24:17.221Z,14.35
2022-10-20T06:26:44.809Z,18.25
2022-10-20T06:29:13.541Z,18.55
2022-10-20T06:31:42.260Z,20.10
2022-10-20T06:34:12.605Z,22.38
2022-10-20T06:36:40.582Z,17.15
2022-10-20T06:39:08.603Z,15.23
2022-10-20T06:41:36.198Z,21.08
2022-10-20T06:44:03.445Z,15.45
2022-10-20T06:46:32.103Z,18.55
2022-10-20T06:49:05.967Z,19.63
2022-10-20T06:51:33.864Z,19.27
2022-10-20T06:54:01.681Z,21.00
2022-10-20T06:56:30.408Z,16.98
2022-10-20T06:58:58.621Z,16.42
2022-10-20T07:01:28.075Z,14.20
2022-10-20T07:03:56.841Z,16.50
2022-10-20T07:06:25.356Z,18.70
2022-10-20T07:08:53.932Z,14.48
2022-10-20T07:11:22.277Z,12.93
2022-10-20T07:13:49.795Z,13.52
2022-10-20T07:16:18.353Z,19.33
2022-10-20T07:18:45.710Z,16.40
2022-10-20T07:21:14.458Z,14.98
2022-10-20T07:23:42.104Z,13.95
2022-10-20T07:26:22.221Z,14.75
2022-10-20T07:28:55.727Z,14.85
2022-10-20T07:31:33.662Z,15.97
2022-10-20T07:34:07.434Z,13.82
2022-10-20T07:36:44.535Z,17.83
2022-10-20T07:39:13.193Z,15.40
2022-10-20T07:41:40.704Z,13.63
2022-10-20T07:44:08.192Z,15.48
2022-10-20T07:46:36.479Z,15.82
2022-10-20T07:49:38.173Z,14.27
2022-10-20T07:51:51.851Z,16.42
2022-10-20T07:54:19.063Z,16.23
2022-10-20T07:56:46.673Z,18.33
2022-10-20T07:59:14.320Z,16.27
2022-10-20T08:01:41.988Z,17.63
2022-10-20T08:04:09.316Z,17.02
2022-10-20T08:06:39.126Z,18.23
2022-10-20T08:09:07.375Z,14.02
2022-10-20T08:11:35.098Z,17.38
2022-10-20T08:14:02.536Z,15.18
2022-10-20T08:16:29.883Z,16.55
2022-10-20T08:19:05.862Z,14.57
2022-10-20T08:21:33.438Z,16.33
2022-10-20T08:24:02.536Z,13.25
2022-10-20T08:26:29.905Z,13.30
2022-10-20T08:28:57.288Z,14.40
2022-10-20T08:31:24.729Z,14.68
2022-10-20T08:33:53.188Z,19.88
2022-10-20T08:36:21.507Z,10.85
2022-10-20T08:38:49.013Z,14.88
2022-10-20T08:41:21.490Z,16.30
2022-10-20T08:43:50.123Z,16.80
2022-10-20T08:48:51.267Z,12.68
2022-10-20T08:51:28.648Z,15.70
2022-10-20T08:53:57.390Z,12.38
2022-10-20T08:56:26.062Z,13.68
2022-10-20T08:58:53.744Z,13.13
2022-10-20T09:01:22.781Z,12.15
2022-10-20T09:04:00.438Z,16.73
2022-10-20T09:06:27.853Z,16.35
2022-10-20T09:08:55.972Z,16.67
2022-10-20T09:11:28.520Z,16.50
2022-10-20T09:13:55.872Z,14.38
2022-10-20T09:16:42.081Z,19.42
2022-10-20T09:19:20.696Z,18.00
2022-10-20T09:21:50.956Z,15.35
2022-10-20T09:24:19.483Z,14.98
2022-10-20T09:27:04.244Z,17.98
2022-10-20T09:29:39.074Z,14.52
2022-10-20T09:32:45.015Z,17.23
2022-10-20T09:35:20.562Z,18.50
2022-10-20T09:37:53.550Z,17.63
2022-10-20T09:40:21.328Z,16.58
2022-10-20T09:42:53.521Z,12.88
2022-10-20T09:45:28.544Z,15.85
2022-10-20T09:47:59.983Z,17.58
2022-10-20T09:50:27.435Z,16.98
2022-10-20T09:52:55.145Z,13.85
2022-10-20T09:55:45.248Z,17.98
2022-10-20T09:58:19.036Z,25.08
2022-10-20T10:00:47.686Z,16.03
2022-10-20T10:03:22.772Z,14.57
2022-10-20T10:05:52.038Z,15.30
2022-10-20T10:08:20.116Z,15.68
2022-10-20T10:10:58.448Z,20.05
2022-10-20T10:13:27.384Z,14.75
2022-10-20T10:16:06.020Z,15.35
2022-10-20T10:18:33.777Z,15.35
2022-10-20T10:21:02.917Z,14.05
2022-10-20T10:23:31.525Z,20.25
2022-10-20T10:26:02.015Z,19.90
2022-10-20T10:28:33.548Z,19.00
2022-10-20T10:31:19.549Z,18.75
2022-10-20T10:33:47.223Z,19.63
2022-10-20T10:36:34.705Z,18.92
2022-10-20T10:39:02.835Z,17.65
2022-10-20T10:41:36.632Z,17.27
2022-10-20T10:44:12.795Z,20.67
2022-10-20T10:46:58.814Z,21.27
2022-10-20T10:49:29.299Z,18.73
2022-10-20T10:51:59.552Z,17.65
2022-10-20T10:54:33.002Z,19.55
2022-10-20T10:57:03.266Z,17.80
2022-10-20T10:59:35.223Z,19.10
2022-10-20T11:02:05.615Z,15.23
2022-10-20T11:04:40.644Z,13.55
2022-10-20T11:07:13.895Z,13.07
2022-10-20T11:09:47.307Z,14.60
2022-10-20T11:12:26.413Z,14.80
2022-10-20T11:15:26.273Z,16.98
2022-10-20T11:18:02.526Z,14.15
2022-10-20T11:20:41.772Z,16.08
2022-10-20T11:23:29.314Z,16.80
2022-10-20T11:26:03.814Z,15.45
2022-10-20T11:28:35.764Z,15.55
2022-10-20T11:31:05.047Z,14.18
2022-10-20T11:33:44.082Z,15.57
2022-10-20T11:36:16.965Z,14.48
2022-10-20T11:38:51.924Z,13.43
2022-10-20T11:41:22.065Z,12.90
2022-10-20T11:44:00.808Z,15.80
2022-10-20T11:46:31.288Z,12.88
2022-10-20T11:49:01.727Z,15.80
2022-10-20T11:51:40.884Z,12.40
2022-10-20T11:54:26.848Z,15.93
2022-10-20T11:56:58.635Z,12.63
2022-10-20T11:59:44.452Z,14.07
2022-10-20T12:02:11.975Z,16.65
2022-10-20T12:04:50.548Z,15.05
2022-10-20T12:07:32.549Z,15.98
2022-10-20T12:10:04.676Z,14.00
2022-10-20T12:12:37.657Z,13.02
2022-10-20T12:15:19.781Z,14.82
2022-10-20T12:17:47.379Z,15.07
2022-10-20T12:20:23.784Z,13.68
2022-10-20T12:23:02.452Z,17.13
2022-10-20T12:25:37.298Z,11.63
2022-10-20T12:28:23.044Z,15.23
2022-10-20T12:30:59.389Z,14.95
2022-10-20T12:33:45.285Z,13.57
2022-10-20T12:36:26.378Z,12.65
2022-10-20T12:38:54.938Z,15.50
2022-10-20T12:41:27.176Z,16.98
2022-10-20T12:43:55.899Z,12.50
2022-10-20T12:46:26.856Z,15.32
2022-10-20T12:49:00.286Z,11.32
2022-10-20T12:51:30.383Z,13.02
2022-10-20T12:54:00.311Z,11.55
2022-10-20T12:56:29.163Z,16.88
2022-10-20T12:59:15.323Z,13.80
2022-10-20T13:02:02.278Z,13.95
2022-10-20T13:04:48.052Z,10.38
2022-10-20T13:07:15.378Z,13.45
2022-10-20T13:09:57.979Z,9.93
2022-10-20T13:14:59.387Z,13.23
2022-10-20T13:17:30.655Z,10.68
2022-10-20T13:20:21.059Z,9.40
2022-10-20T13:22:50.556Z,7.80
2022-10-20T13:25:22.995Z,9.77
2022-10-20T13:27:50.614Z,11.18
2022-10-20T13:30:22.846Z,8.88
2022-10-20T13:36:09.175Z,9.52
2022-10-20T13:38:40.141Z,7.28
2022-10-20T13:41:16.998Z,12.50
2022-10-20T13:43:47.093Z,11.57
2022-10-20T13:46:17.400Z,7.85
2022-10-20T13:48:47.428Z,6.57
2022-10-20T13:51:19.894Z,6.30
2022-10-20T13:53:49.623Z,9.63
2022-10-20T13:56:16.773Z,8.73
2022-10-20T13:59:05.491Z,11.45
2022-10-20T14:01:35.228Z,10.07
2022-10-20T14:04:02.649Z,7.07
2022-10-20T14:06:33.765Z,7.40
2022-10-20T14:09:11.339Z,6.25
2022-10-20T14:11:38.853Z,8.45
2022-10-20T14:14:06.075Z,7.10
2022-10-20T14:16:33.650Z,7.75
2022-10-20T14:19:11.508Z,6.28
2022-10-20T14:21:43.344Z,4.97
2022-10-20T14:24:24.371Z,7.22
2022-10-20T14:26:52.392Z,8.75
2022-10-20T14:29:20.742Z,9.93
2022-10-20T14:31:49.249Z,6.22
2022-10-20T14:34:21.089Z,6.68
2022-10-20T14:36:49.347Z,7.80
2022-10-20T14:39:25.847Z,6.32
2022-10-20T14:41:53.932Z,7.35
2022-10-20T14:44:31.084Z,6.15
2022-10-20T14:47:01.249Z,6.65
2022-10-20T14:49:34.459Z,6.40
2022-10-20T14:52:22.099Z,11.13
2022-10-20T14:54:50.590Z,8.32
2022-10-20T14:57:17.867Z,10.82
2022-10-20T14:59:55.944Z,6.40
2022-10-20T15:02:24.118Z,6.75
2022-10-20T15:04:54.715Z,5.68
2022-10-20T15:07:28.361Z,5.88
2022-10-20T15:10:01.499Z,8.60
2022-10-20T15:12:31.729Z,5.82
2022-10-20T15:15:28.966Z,6.57
2022-10-20T15:18:05.152Z,6.80
2022-10-20T15:20:32.578Z,4.95
2022-10-20T15:23:06.076Z,6.45
2022-10-20T15:25:39.332Z,6.00
2022-10-20T15:28:07.720Z,5.40
2022-10-20T15:30:35.069Z,7.32
2022-10-20T15:33:02.368Z,6.00
2022-10-20T15:35:31.153Z,5.97
2022-10-20T15:37:58.558Z,9.95
2022-10-20T15:40:25.748Z,7.88
2022-10-20T15:42:53.064Z,4.80
2022-10-20T15:45:22.007Z,9.68
2022-10-20T15:47:49.626Z,5.82
2022-10-20T15:50:19.454Z,5.78
2022-10-20T15:52:49.068Z,6.95
2022-10-20T15:55:18.499Z,5.00
2022-10-20T15:57:45.730Z,6.78
2022-10-20T16:00:13.369Z,5.07
2022-10-20T16:02:40.688Z,6.15
2022-10-20T16:05:08.050Z,6.75
2022-10-20T16:07:35.551Z,6.20
2022-10-20T16:10:03.013Z,5.10
2022-10-20T16:12:30.411Z,6.00
2022-10-20T16:14:57.629Z,5.75
2022-10-20T16:17:25.057Z,5.07
2022-10-20T16:19:52.290Z,5.28
2022-10-20T16:22:19.711Z,5.78
2022-10-20T16:24:47.388Z,6.32
2022-10-20T16:27:14.999Z,7.32
2022-10-20T16:29:45.109Z,5.25
2022-10-20T16:32:14.963Z,6.88
2022-10-20T16:34:42.181Z,8.13
2022-10-20T16:37:09.549Z,5.10
2022-10-20T16:39:36.844Z,6.18
2022-10-20T16:42:04.163Z,4.55
2022-10-20T16:44:31.559Z,5.88
2022-10-20T16:46:58.952Z,6.22
2022-10-20T16:49:26.271Z,7.45
2022-10-20T16:51:59.159Z,6.15
2022-10-20T16:54:26.639Z,7.72
2022-10-20T16:56:53.818Z,4.65
2022-10-20T16:59:21.308Z,8.18
2022-10-20T17:01:48.471Z,7.82
2022-10-20T17:04:15.792Z,5.20
2022-10-20T17:06:43.137Z,5.10
2022-10-20T17:09:10.525Z,10.68
2022-10-20T17:11:38.414Z,8.55
2022-10-20T17:14:05.706Z,8.07
2022-10-20T17:16:34.165Z,7.18
2022-10-20T17:19:02.291Z,6.60
2022-10-20T17:21:30.940Z,5.00
2022-10-20T17:23:58.759Z,6.88
2022-10-20T17:26:26.824Z,7.22
2022-10-20T17:28:55.292Z,4.20
2022-10-20T17:31:22.733Z,6.50
2022-10-20T17:33:51.438Z,6.60
2022-10-20T17:36:19.806Z,8.38
2022-10-20T17:38:47.114Z,5.45
2022-10-20T17:41:15.540Z,5.70
2022-10-20T17:43:43.044Z,7.60
2022-10-20T17:46:12.447Z,6.78
2022-10-20T17:48:40.146Z,7.53
2022-10-20T17:51:22.234Z,9.32
2022-10-20T17:53:50.626Z,8.93
2022-10-20T17:56:17.850Z,14.18
2022-10-20T17:58:46.252Z,9.32
2022-10-20T18:01:13.558Z,12.18
2022-10-20T18:03:41.679Z,11.93
2022-10-20T18:06:13.774Z,12.65
2022-10-20T18:08:41.355Z,12.48
2022-10-20T18:11:09.878Z,8.55
2022-10-20T18:13:37.888Z,7.55
2022-10-20T18:16:06.033Z,4.72
2022-10-20T18:18:33.371Z,7.72
2022-10-20T18:21:00.648Z,7.50
2022-10-20T18:23:29.741Z,10.13
2022-10-20T18:25:57.204Z,7.47
2022-10-20T18:28:25.183Z,11.32
2022-10-20T18:30:52.571Z,11.68
2022-10-20T18:33:19.895Z,10.30
2022-10-20T18:35:47.246Z,11.73
2022-10-20T18:38:14.575Z,7.72
2022-10-20T18:40:41.862Z,7.10
2022-10-20T18:43:09.368Z,8.40
2022-10-20T18:45:36.551Z,8.48
2022-10-20T18:48:04.610Z,10.80
2022-10-20T18:50:32.478Z,8.98
2022-10-20T18:52:59.783Z,11.52
2022-10-20T18:55:27.008Z,13.02
2022-10-20T18:57:54.377Z,9.15
2022-10-20T19:00:21.777Z,9.60
2022-10-20T19:02:54.815Z,9.85
2022-10-20T19:05:24.552Z,9.65
2022-10-20T19:07:51.730Z,9.30
2022-10-20T19:10:19.122Z,8.23
2022-10-20T19:12:46.353Z,10.80
2022-10-20T19:15:13.631Z,8.00
2022-10-20T19:17:40.856Z,8.95
2022-10-20T19:20:10.275Z,8.70
2022-10-20T19:22:39.451Z,9.43
2022-10-20T19:25:07.137Z,11.02
2022-10-20T19:27:34.624Z,12.45
2022-10-20T19:30:01.947Z,10.05
2022-10-20T19:32:29.291Z,9.88
2022-10-20T19:34:56.667Z,12.93
2022-10-20T19:37:24.595Z,8.73
2022-10-20T19:39:51.838Z,11.48
2022-10-20T19:42:19.208Z,7.25
2022-10-20T19:44:46.600Z,7.70
2022-10-20T19:47:14.013Z,12.60
2022-10-20T19:49:41.356Z,6.93
2022-10-20T19:52:08.950Z,9.85
2022-10-20T19:54:36.331Z,7.47
2022-10-20T19:57:03.723Z,12.65
2022-10-20T19:59:31.055Z,11.88
2022-10-20T20:01:58.591Z,11.70
2022-10-20T20:04:25.757Z,7.72
2022-10-20T20:06:53.055Z,8.88
2022-10-20T20:09:20.363Z,9.38
2022-10-20T20:11:47.807Z,9.52
2022-10-20T20:14:19.267Z,14.40
2022-10-20T20:16:47.396Z,11.10
2022-10-20T20:19:15.337Z,10.65
2022-10-20T20:21:42.648Z,14.07
2022-10-20T20:24:11.834Z,11.52
2022-10-20T20:26:39.141Z,11.57
2022-10-20T20:29:06.344Z,14.45
2022-10-20T20:31:33.645Z,9.93
2022-10-20T20:34:00.960Z,7.93
2022-10-20T20:36:28.926Z,9.02
2022-10-20T20:38:59.687Z,12.20
2022-10-20T20:41:31.343Z,8.40
2022-10-20T20:43:58.614Z,7.80
2022-10-20T20:46:29.167Z,6.03
2022-10-20T20:48:56.730Z,6.75
2022-10-20T20:51:25.234Z,9.90
2022-10-20T20:53:52.709Z,9.90
2022-10-20T20:56:21.971Z,10.65
2022-10-20T20:58:53.609Z,9.55
2022-10-20T21:01:31.331Z,9.57
2022-10-20T21:04:03.145Z,9.95
2022-10-20T21:06:56.441Z,11.10
2022-10-20T21:09:18.205Z,10.43
2022-10-20T21:11:45.931Z,7.80
2022-10-20T21:14:13.190Z,9.52
2022-10-20T21:16:40.448Z,8.25
2022-10-20T21:19:09.651Z,8.70
2022-10-20T21:21:43.978Z,11.05
2022-10-20T21:24:12.661Z,10.40
2022-10-20T21:26:40.255Z,10.15
2022-10-20T21:29:07.602Z,8.13
2022-10-20T21:31:35.100Z,6.93
2022-10-20T21:34:03.688Z,8.63
2022-10-20T21:36:32.421Z,7.53
2022-10-20T21:39:00.280Z,8.18
2022-10-20T21:41:28.915Z,7.10
2022-10-20T21:43:57.434Z,6.85
2022-10-20T21:46:32.312Z,8.68
2022-10-20T21:49:01.355Z,6.90
2022-10-20T21:51:35.707Z,7.07
2022-10-20T21:56:33.028Z,7.95
2022-10-20T21:59:00.455Z,9.55
2022-10-20T22:01:27.973Z,8.35
2022-10-20T22:03:55.387Z,8.68
2022-10-20T22:06:24.945Z,6.70
2022-10-20T22:08:53.890Z,3.75
2022-10-20T22:11:22.852Z,5.95
2022-10-20T22:13:50.392Z,4.57
2022-10-20T22:16:20.048Z,4.95
2022-10-20T22:18:47.361Z,6.07
2022-10-20T22:21:15.941Z,8.57
2022-10-20T22:23:44.263Z,7.28
2022-10-20T22:26:11.566Z,5.72
2022-10-20T22:28:38.989Z,3.88
2022-10-20T22:31:07.435Z,4.57
2022-10-20T22:33:34.807Z,6.00
2022-10-20T22:36:02.076Z,5.63
2022-10-20T22:38:29.359Z,5.57
2022-10-20T22:41:00.164Z,4.30
2022-10-20T22:43:28.026Z,7.57
2022-10-20T22:45:55.347Z,4.90
2022-10-20T22:48:22.668Z,5.18
2022-10-20T22:50:50.276Z,6.10
2022-10-20T22:53:17.561Z,5.07
2022-10-20T22:55:44.906Z,4.03
2022-10-20T22:58:12.306Z,6.22
2022-10-20T23:00:40.384Z,6.88
2022-10-20T23:03:07.871Z,3.90
2022-10-20T23:05:35.139Z,5.43
2022-10-20T23:08:02.590Z,5.68
2022-10-20T23:10:30.039Z,7.47
2022-10-20T23:12:57.406Z,5.93
2022-10-20T23:15:24.762Z,5.60
2022-10-20T23:17:52.020Z,4.85
2022-10-20T23:20:19.329Z,5.47
2022-10-20T23:22:48.507Z,5.10
2022-10-20T23:25:15.786Z,5.82
2022-10-20T23:27:43.167Z,4.47
2022-10-20T23:30:10.708Z,6.07
2022-10-20T23:32:37.998Z,4.05
2022-10-20T23:35:05.512Z,6.70
2022-10-20T23:37:33.665Z,8.18
2022-10-20T23:40:00.856Z,6.88
2022-10-20T23:42:28.269Z,10.93
2022-10-20T23:44:55.563Z,5.68
2022-10-20T23:47:22.891Z,5.80
2022-10-20T23:49:50.182Z,6.70
2022-10-20T23:52:17.475Z,4.70
2022-10-20T23:54:44.673Z,10.98
2022-10-20T23:57:11.998Z,9.15
2022-10-20T23:59:39.195Z,11.18
